Leconfield, United Kingdom
Current Conditions -  °F | °C
As of 12:50 PM on Wednesday 22 Oct 2014 (Local Time) from EGXV Reporting Station
Scattered Clouds Scattered Clouds  
Wind Chill: 55°   Ceiling: Unl
Heat Index: 55°   Visibility: 6mi
Dew Point: 46°   Wind: 14mph
Humidity: 72%   Direction: 260°W
Pressure: 30.15"   Gusts: NA
Location:  53.88°N, 0.46°W
Report Text: EGXV 221150Z AUTO 26012KT 9999 FEW034/// SCT070/// 13/08 Q1021
Loading
Personal Weather Stations






























Interactive Weather Map New forecast layout! Learn more

10-Day Weather Forecast

Advertisements
Track Severe Weather on mobile